Time;durP1;ratioP1;P1;durP2;ratioP2;P2;SDS_P1;SDS_P2;PMS_P1;PMS_P2;Temp;Humidity;BMP_temperature;BMP_pressure;BME280_temperature;BME280_humidity;BME280_pressure;Samples;Min_cycle;Max_cycle;Signal;HPM_P1;HPM_P2
2023/10/28 00:01:22;;;;;;;13.00;12.00;;;;;;;11.62;100.00;98367.91;5034574;28;20199;-80
2023/10/28 00:03:49;;;;;;;12.87;11.77;;;;;;;11.60;100.00;98370.59;5033278;28;20198;-80
2023/10/28 00:06:17;;;;;;;12.57;11.43;;;;;;;11.70;100.00;98370.94;5032950;28;20210;-80
2023/10/28 00:08:43;;;;;;;12.83;11.83;;;;;;;11.64;100.00;98377.34;5033513;28;20221;-80
2023/10/28 00:11:10;;;;;;;12.93;11.83;;;;;;;11.76;100.00;98378.41;5033421;28;20877;-80
2023/10/28 00:13:36;;;;;;;13.73;12.53;;;;;;;11.77;100.00;98385.31;5032401;28;20229;-80
2023/10/28 00:16:03;;;;;;;11.97;11.03;;;;;;;11.80;100.00;98390.38;5031633;28;20210;-79
2023/10/28 00:18:29;;;;;;;12.80;11.70;;;;;;;11.85;100.00;98401.44;5017853;28;20232;-79
2023/10/28 00:20:56;;;;;;;12.43;11.43;;;;;;;11.89;100.00;98404.72;5035311;28;20208;-80
2023/10/28 00:23:25;;;;;;;12.23;11.23;;;;;;;11.90;100.00;98406.41;5036556;28;20214;-80
2023/10/28 00:25:51;;;;;;;11.63;10.73;;;;;;;11.85;100.00;98413.63;5043354;28;20200;-79
2023/10/28 00:28:18;;;;;;;12.00;11.00;;;;;;;11.90;100.00;98427.31;5035340;28;20223;-80
2023/10/28 00:30:44;;;;;;;12.17;11.17;;;;;;;11.86;100.00;98434.47;5035520;28;20198;-80
2023/10/28 00:33:11;;;;;;;13.73;12.63;;;;;;;11.91;100.00;98436.84;5035984;28;20228;-80
2023/10/28 00:35:37;;;;;;;14.33;13.13;;;;;;;11.96;100.00;98437.44;5035365;28;20395;-80
2023/10/28 00:38:04;;;;;;;13.63;12.33;;;;;;;11.96;100.00;98445.28;5035359;28;20222;-80
2023/10/28 00:40:31;;;;;;;12.60;11.60;;;;;;;11.96;100.00;98454.91;5035896;28;20205;-80
2023/10/28 00:42:59;;;;;;;13.07;11.83;;;;;;;11.93;100.00;98458.50;5034918;28;20690;-80
2023/10/28 00:45:27;;;;;;;12.03;11.03;;;;;;;11.94;100.00;98459.38;5031743;28;20204;-80
2023/10/28 00:47:54;;;;;;;11.37;10.27;;;;;;;11.96;100.00;98457.53;5016062;28;20272;-80
2023/10/28 00:50:23;;;;;;;11.60;10.60;;;;;;;11.95;100.00;98464.50;5034740;28;20209;-80
2023/10/28 00:52:53;;;;;;;10.53;9.63;;;;;;;11.92;100.00;98472.53;5035805;28;20210;-80
2023/10/28 00:55:22;;;;;;;12.03;11.00;;;;;;;11.89;100.00;98468.31;5036123;28;20233;-80
2023/10/28 00:57:50;;;;;;;11.40;10.47;;;;;;;11.90;100.00;98462.16;5022376;28;20207;-79
2023/10/28 01:00:17;;;;;;;11.17;10.27;;;;;;;11.93;100.00;98463.75;5039314;28;20210;-79
2023/10/28 01:02:44;;;;;;;10.93;10.03;;;;;;;11.95;100.00;98469.72;5046113;28;20233;-80
2023/10/28 01:05:13;;;;;;;10.37;9.43;;;;;;;11.99;100.00;98478.25;5034407;28;20207;-80
2023/10/28 01:07:40;;;;;;;9.73;8.70;;;;;;;11.99;100.00;98488.69;5043410;28;20333;-80
2023/10/28 01:10:08;;;;;;;7.17;6.63;;;;;;;11.97;100.00;98493.19;5036784;28;20213;-80
2023/10/28 01:12:35;;;;;;;6.57;5.97;;;;;;;12.02;100.00;98499.00;5047122;28;20202;-80
2023/10/28 01:15:03;;;;;;;6.37;5.87;;;;;;;12.00;100.00;98506.94;5038680;28;20222;-80
2023/10/28 01:17:31;;;;;;;5.57;5.17;;;;;;;11.98;100.00;98500.94;5039565;28;20220;-80
2023/10/28 01:19:58;;;;;;;5.87;5.27;;;;;;;11.99;100.00;98502.66;5039011;28;20254;-80
2023/10/28 01:22:26;;;;;;;4.73;4.33;;;;;;;12.01;100.00;98505.16;5039036;28;20202;-80
2023/10/28 01:24:53;;;;;;;4.70;4.40;;;;;;;11.99;100.00;98504.41;5039224;28;20203;-80
2023/10/28 01:27:20;;;;;;;4.97;4.50;;;;;;;11.95;100.00;98498.50;5027914;28;20210;-80
2023/10/28 01:29:46;;;;;;;4.10;3.80;;;;;;;11.94;100.00;98496.81;5024222;28;20579;-80
2023/10/28 01:32:14;;;;;;;4.40;3.40;;;;;;;11.95;100.00;98488.03;5038624;28;20214;-80
2023/10/28 01:34:46;;;;;;;3.87;3.13;;;;;;;11.96;100.00;98484.50;5037809;28;20227;-80
2023/10/28 01:37:13;;;;;;;3.50;3.20;;;;;;;11.90;100.00;98487.47;5038363;28;20261;-80
2023/10/28 01:39:40;;;;;;;4.10;3.73;;;;;;;11.91;100.00;98483.91;5039299;28;20615;-80
2023/10/28 01:42:08;;;;;;;4.27;3.97;;;;;;;11.90;100.00;98482.22;5039189;28;20587;-80
2023/10/28 01:44:36;;;;;;;3.37;3.07;;;;;;;11.90;100.00;98482.22;5037982;28;20226;-80
2023/10/28 01:47:03;;;;;;;3.40;3.20;;;;;;;11.91;100.00;98483.91;5037762;28;20294;-80
2023/10/28 01:49:31;;;;;;;3.10;2.80;;;;;;;11.89;100.00;98481.41;5041245;28;20658;-80
2023/10/28 01:51:57;;;;;;;3.63;3.33;;;;;;;11.88;100.00;98476.22;5042103;28;20199;-80
2023/10/28 01:54:23;;;;;;;4.00;3.70;;;;;;;11.85;100.00;98477.25;5037524;28;20226;-80
2023/10/28 01:56:51;;;;;;;4.07;3.77;;;;;;;11.87;100.00;98485.84;5031076;28;20211;-80
2023/10/28 01:59:18;;;;;;;4.13;3.73;;;;;;;11.88;100.00;98477.06;5024234;28;20610;-80
2023/10/28 02:01:44;;;;;;;3.93;3.50;;;;;;;11.90;100.00;98487.47;5038008;28;20199;-79
2023/10/28 02:04:11;;;;;;;4.07;3.77;;;;;;;11.86;100.00;98488.53;5045616;28;20214;-80
2023/10/28 02:06:38;;;;;;;4.27;3.87;;;;;;;11.88;100.00;98487.50;5037006;28;20284;-80
2023/10/28 02:09:04;;;;;;;3.47;3.17;;;;;;;11.88;100.00;98486.66;5037289;28;20222;-80
2023/10/28 02:11:32;;;;;;;4.17;3.73;;;;;;;11.80;100.00;98492.31;5037435;28;20212;-80
2023/10/28 02:14:00;;;;;;;6.87;3.33;;;;;;;11.77;100.00;98489.88;5036552;28;20267;-81
2023/10/28 02:16:26;;;;;;;3.93;3.63;;;;;;;11.72;100.00;98502.38;5037762;28;20206;-80
2023/10/28 02:18:54;;;;;;;4.17;3.83;;;;;;;11.69;100.00;98505.13;5037195;28;20230;-80
2023/10/28 02:21:20;;;;;;;3.87;3.27;;;;;;;11.62;100.00;98507.25;5037591;28;20208;-80
2023/10/28 02:23:47;;;;;;;3.73;3.43;;;;;;;11.65;100.00;98512.28;5038065;28;20198;-81
2023/10/28 02:26:13;;;;;;;5.50;3.70;;;;;;;11.63;100.00;98519.38;5036261;28;20206;-80
2023/10/28 02:28:40;;;;;;;3.70;3.40;;;;;;;11.62;100.00;98522.91;5017786;28;20228;-80
2023/10/28 02:31:10;;;;;;;4.27;3.97;;;;;;;11.60;100.00;98537.84;5034699;28;20214;-80
2023/10/28 02:33:36;;;;;;;3.83;3.47;;;;;;;11.60;100.00;98542.22;5037726;28;20206;-80
2023/10/28 02:36:05;;;;;;;4.63;4.20;;;;;;;11.52;99.88;98537.41;5037582;28;20202;-81
2023/10/28 02:38:31;;;;;;;4.17;3.87;;;;;;;11.49;100.00;98542.78;5037606;28;20673;-80
2023/10/28 02:40:58;;;;;;;5.40;4.20;;;;;;;11.49;100.00;98548.84;5037556;28;20230;-80
2023/10/28 02:43:24;;;;;;;5.33;4.47;;;;;;;11.49;100.00;98541.00;5036698;28;20699;-80
2023/10/28 02:45:51;;;;;;;4.43;4.03;;;;;;;11.49;99.99;98546.25;5037274;28;20660;-80
2023/10/28 02:48:19;;;;;;;4.97;3.90;;;;;;;11.45;99.52;98549.09;5036437;28;20229;-80
2023/10/28 02:50:45;;;;;;;5.07;4.13;;;;;;;11.46;99.91;98549.03;5037403;28;20198;-80
2023/10/28 02:53:12;;;;;;;4.47;4.07;;;;;;;11.38;99.94;98553.81;5038168;28;20237;-80
2023/10/28 02:55:38;;;;;;;4.67;4.13;;;;;;;11.36;100.00;98553.06;5044822;28;20218;-80
2023/10/28 02:58:05;;;;;;;4.73;4.00;;;;;;;11.32;99.84;98556.75;5019604;28;20591;-80
2023/10/28 03:00:31;;;;;;;4.70;4.40;;;;;;;11.26;99.75;98557.09;5029144;28;20259;-80
2023/10/28 03:02:59;;;;;;;4.63;4.13;;;;;;;11.23;99.53;98557.22;5037328;28;20664;-80
2023/10/28 03:05:26;;;;;;;4.23;3.93;;;;;;;11.24;100.00;98565.00;5039440;28;20198;-80
2023/10/28 03:07:53;;;;;;;4.53;4.20;;;;;;;11.26;99.99;98562.31;5047955;28;20217;-81
2023/10/28 03:10:20;;;;;;;4.77;4.37;;;;;;;11.22;100.00;98558.13;5038193;28;20665;-80
2023/10/28 03:12:47;;;;;;;3.93;3.70;;;;;;;11.23;100.00;98552.00;5044963;28;20198;-80
2023/10/28 03:15:13;;;;;;;6.77;4.70;;;;;;;11.25;100.00;98544.94;5036633;28;20230;-80
2023/10/28 03:17:40;;;;;;;3.97;3.63;;;;;;;11.43;100.00;98538.72;5036306;28;20214;-80
2023/10/28 03:20:10;;;;;;;6.60;4.60;;;;;;;11.59;99.64;98553.59;5036448;28;20217;-80
2023/10/28 03:22:38;;;;;;;5.27;4.77;;;;;;;11.69;98.69;98573.94;5029061;28;20665;-80
2023/10/28 03:25:05;;;;;;;4.70;4.20;;;;;;;11.69;98.40;98580.91;5036889;28;20205;-81
2023/10/28 03:27:32;;;;;;;7.37;4.90;;;;;;;11.67;98.68;98583.63;5024967;28;20282;-80
2023/10/28 03:29:58;;;;;;;6.13;4.30;;;;;;;11.68;98.36;98577.47;5023350;28;20226;-80
2023/10/28 03:32:25;;;;;;;4.97;4.47;;;;;;;11.72;98.16;98583.38;5036444;28;20202;-81
2023/10/28 03:34:51;;;;;;;6.67;4.80;;;;;;;11.74;97.95;98599.81;5035987;28;20234;-80
2023/10/28 03:37:18;;;;;;;4.27;3.87;;;;;;;11.73;97.61;98603.34;5036718;28;20211;-80
2023/10/28 03:39:46;;;;;;;4.63;3.80;;;;;;;11.75;97.42;98618.97;5036151;28;20228;-80
2023/10/28 03:42:12;;;;;;;6.87;3.77;;;;;;;11.74;96.79;98620.75;5035929;28;20204;-80
2023/10/28 03:44:39;;;;;;;3.63;3.33;;;;;;;11.71;96.34;98623.50;5035637;28;20198;-80
2023/10/28 03:47:07;;;;;;;4.67;3.63;;;;;;;11.71;96.21;98637.44;5036460;28;20294;-80
2023/10/28 03:49:34;;;;;;;4.57;3.50;;;;;;;11.69;96.25;98636.69;5036032;28;20254;-81
2023/10/28 03:52:00;;;;;;;3.83;3.53;;;;;;;11.67;96.43;98635.91;5036144;28;20229;-81
2023/10/28 03:54:27;;;;;;;6.10;3.70;;;;;;;11.70;96.36;98632.28;5036270;28;20228;-80
2023/10/28 03:56:54;;;;;;;3.90;3.60;;;;;;;11.67;96.86;98629.81;5029892;28;20227;-80
2023/10/28 03:59:21;;;;;;;5.10;4.43;;;;;;;11.63;96.47;98634.34;5017288;28;20318;-80
2023/10/28 04:01:47;;;;;;;4.90;4.03;;;;;;;11.66;96.60;98633.38;5041465;28;20688;-80
2023/10/28 04:04:14;;;;;;;4.67;3.70;;;;;;;11.66;96.67;98628.97;5038688;28;20713;-80
2023/10/28 04:06:40;;;;;;;5.10;4.03;;;;;;;11.61;96.49;98633.59;5040480;28;20717;-80
2023/10/28 04:09:07;;;;;;;4.63;3.53;;;;;;;11.61;96.82;98635.38;5039735;28;20236;-80
2023/10/28 04:11:33;;;;;;;5.90;3.90;;;;;;;11.42;96.74;98638.94;5036207;28;20207;-80
2023/10/28 04:14:02;;;;;;;5.47;3.73;;;;;;;11.24;98.58;98619.84;5035353;28;20213;-80
2023/10/28 04:16:29;;;;;;;4.60;4.03;;;;;;;11.21;99.41;98596.47;5036359;28;20225;-80
2023/10/28 04:18:56;;;;;;;3.93;3.30;;;;;;;11.22;99.55;98584.25;5035180;28;20240;-80
2023/10/28 04:21:22;;;;;;;6.07;3.53;;;;;;;11.21;99.73;98577.34;5036072;28;20213;-80
2023/10/28 04:23:48;;;;;;;4.63;4.23;;;;;;;11.18;99.96;98578.38;5036056;28;20202;-80
2023/10/28 04:26:15;;;;;;;3.73;3.43;;;;;;;11.18;99.73;98578.38;5035836;28;20810;-80
2023/10/28 04:28:41;;;;;;;3.80;3.40;;;;;;;11.16;100.00;98574.13;5019295;28;20230;-80
2023/10/28 04:31:10;;;;;;;3.67;3.37;;;;;;;11.12;100.00;98570.84;5036313;28;20206;-80
2023/10/28 04:33:36;;;;;;;4.30;3.23;;;;;;;11.15;100.00;98569.84;5036564;28;20221;-80
2023/10/28 04:36:03;;;;;;;4.90;3.43;;;;;;;11.13;100.00;98562.91;5035705;28;20218;-81
2023/10/28 04:38:30;;;;;;;3.37;3.13;;;;;;;11.11;100.00;98562.16;5035768;28;20231;-80
2023/10/28 04:40:57;;;;;;;3.73;2.90;;;;;;;11.13;100.00;98554.25;5041985;28;20201;-80
2023/10/28 04:43:23;;;;;;;10.33;3.37;;;;;;;11.13;100.00;98557.69;5037615;28;20206;-80
2023/10/28 04:45:50;;;;;;;3.77;3.20;;;;;;;11.12;100.00;98544.75;5039245;28;20237;-80
2023/10/28 04:48:18;;;;;;;6.50;3.53;;;;;;;11.15;100.00;98541.94;5040220;28;20234;-80
2023/10/28 04:50:45;;;;;;;4.00;2.80;;;;;;;11.18;100.00;98538.31;5040808;28;20207;-80
2023/10/28 04:53:12;;;;;;;3.73;2.57;;;;;;;11.17;100.00;98536.66;5040744;28;20675;-80
2023/10/28 04:55:38;;;;;;;3.53;2.90;;;;;;;11.19;100.00;98540.03;5039992;28;20240;-80
2023/10/28 04:58:05;;;;;;;2.80;2.43;;;;;;;11.19;100.00;98535.66;5023990;28;20249;-81
2023/10/28 05:00:32;;;;;;;3.13;2.63;;;;;;;11.20;100.00;98534.72;5031138;28;20206;-80
2023/10/28 05:02:58;;;;;;;2.80;2.47;;;;;;;11.20;100.00;98539.97;5040092;28;20229;-80
2023/10/28 05:05:26;;;;;;;3.53;2.60;;;;;;;11.25;100.00;98539.72;5039821;28;20209;-81
2023/10/28 05:07:53;;;;;;;6.40;3.00;;;;;;;11.29;100.00;98536.84;5039834;28;20219;-81
2023/10/28 05:10:19;;;;;;;5.10;3.03;;;;;;;11.31;100.00;98545.44;5045514;28;20202;-80
2023/10/28 05:12:46;;;;;;;4.03;2.60;;;;;;;11.34;100.00;98539.25;5039663;28;20213;-80
2023/10/28 05:15:12;;;;;;;5.60;2.73;;;;;;;11.32;100.00;98541.09;5041057;28;20233;-81
2023/10/28 05:17:39;;;;;;;5.37;2.47;;;;;;;11.31;100.00;98542.84;5039967;28;20225;-80
2023/10/28 05:20:07;;;;;;;3.13;2.93;;;;;;;11.32;100.00;98543.69;5039542;28;20207;-81
2023/10/28 05:22:36;;;;;;;5.70;3.57;;;;;;;11.25;100.00;98537.09;5039412;28;20229;-80
2023/10/28 05:25:04;;;;;;;5.23;3.07;;;;;;;11.28;100.00;98534.34;5039871;28;20194;-81
2023/10/28 05:27:31;;;;;;;5.93;2.80;;;;;;;11.32;100.00;98530.63;5029228;28;20277;-80
2023/10/28 05:29:57;;;;;;;4.23;2.83;;;;;;;11.30;100.00;98538.56;5024967;28;20259;-80
2023/10/28 05:32:23;;;;;;;2.73;2.53;;;;;;;11.28;100.00;98523.88;5040237;28;20678;-80
2023/10/28 05:34:50;;;;;;;5.20;2.47;;;;;;;11.32;100.00;98521.03;5039610;28;20226;-81
2023/10/28 05:37:16;;;;;;;5.07;3.20;;;;;;;11.33;100.00;98527.91;5039945;28;20218;-80
2023/10/28 05:39:44;;;;;;;5.63;2.70;;;;;;;11.29;100.00;98529.00;5039950;28;20230;-80
2023/10/28 05:42:11;;;;;;;3.20;2.40;;;;;;;11.36;100.00;98532.16;5046959;28;20220;-80
2023/10/28 05:44:37;;;;;;;4.40;2.40;;;;;;;11.37;100.00;98536.44;5043243;28;20241;-81
2023/10/28 05:47:04;;;;;;;7.43;2.80;;;;;;;11.31;100.00;98534.16;5044698;28;20211;-80
2023/10/28 05:49:33;;;;;;;2.87;2.47;;;;;;;11.39;100.00;98525.91;5038823;28;20721;-80
2023/10/28 05:51:59;;;;;;;3.50;3.13;;;;;;;11.39;100.00;98526.75;5039665;28;20673;-80
2023/10/28 05:54:26;;;;;;;4.27;2.77;;;;;;;11.45;100.00;98536.03;5039567;28;20202;-80
2023/10/28 05:56:54;;;;;;;6.23;3.00;;;;;;;11.39;100.00;98534.59;5034964;28;20212;-81
2023/10/28 05:59:20;;;;;;;3.63;2.63;;;;;;;11.40;100.00;98536.28;5018825;28;20228;-81
2023/10/28 06:01:47;;;;;;;4.50;2.23;;;;;;;11.45;100.00;98529.03;5039298;28;20206;-78
2023/10/28 06:04:13;;;;;;;3.10;2.30;;;;;;;11.41;100.00;98527.53;5038269;28;20230;-80
2023/10/28 06:06:40;;;;;;;3.90;2.07;;;;;;;11.46;100.00;98527.28;5037199;28;20210;-79
2023/10/28 06:09:09;;;;;;;3.67;2.50;;;;;;;11.41;100.00;98531.91;5052488;28;20233;-79
2023/10/28 06:11:36;;;;;;;5.80;2.50;;;;;;;11.43;100.00;98527.44;5054182;28;20212;-79
2023/10/28 06:14:04;;;;;;;3.83;2.63;;;;;;;11.47;100.00;98532.41;5053076;28;20203;-79
2023/10/28 06:16:31;;;;;;;3.13;2.03;;;;;;;11.49;100.00;98537.56;5053594;28;20248;-79
2023/10/28 06:18:57;;;;;;;3.23;2.33;;;;;;;11.45;100.00;98531.66;5042874;28;20325;-79
2023/10/28 06:21:24;;;;;;;3.60;2.33;;;;;;;11.47;100.00;98536.81;5038811;28;20209;-81
2023/10/28 06:23:50;;;;;;;3.60;2.53;;;;;;;11.45;100.00;98536.88;5041693;28;20211;-80
2023/10/28 06:26:18;;;;;;;4.10;2.40;;;;;;;11.50;100.00;98542.72;5038277;28;20209;-80
2023/10/28 06:28:45;;;;;;;4.77;2.20;;;;;;;11.52;100.00;98537.41;5025348;28;20220;-80
2023/10/28 06:31:14;;;;;;;2.70;2.13;;;;;;;11.57;100.00;98550.22;5033249;28;20216;-80
2023/10/28 06:33:40;;;;;;;3.43;2.07;;;;;;;11.56;100.00;98552.00;5037140;28;20239;-80
2023/10/28 06:36:09;;;;;;;3.37;2.40;;;;;;;11.56;100.00;98564.22;5037303;28;20258;-80
2023/10/28 06:38:35;;;;;;;3.27;2.20;;;;;;;11.58;100.00;98551.94;5037361;28;20222;-80
2023/10/28 06:41:02;;;;;;;2.77;1.90;;;;;;;11.60;100.00;98557.91;5037710;28;20214;-80
2023/10/28 06:43:28;;;;;;;3.00;1.93;;;;;;;11.61;100.00;98560.41;5044805;28;20215;-80
2023/10/28 06:45:54;;;;;;;3.00;1.80;;;;;;;11.87;100.00;98564.25;5037520;28;20211;-80
2023/10/28 06:48:22;;;;;;;2.33;2.00;;;;;;;11.96;100.00;98588.25;5037302;28;20230;-80
2023/10/28 06:50:49;;;;;;;2.30;1.60;;;;;;;12.05;100.00;98614.75;5029886;28;20202;-80
2023/10/28 06:53:15;;;;;;;2.10;1.90;;;;;;;12.09;100.00;98633.72;5037503;28;20206;-80
2023/10/28 06:55:42;;;;;;;3.60;1.97;;;;;;;11.80;100.00;98630.88;5037230;28;20252;-80
2023/10/28 06:58:08;;;;;;;1.80;1.70;;;;;;;11.72;100.00;98617.38;5022613;28;20262;-81
2023/10/28 07:00:36;;;;;;;4.63;1.83;;;;;;;11.71;100.00;98613.03;5026224;28;20213;-81
2023/10/28 07:03:02;;;;;;;2.03;1.70;;;;;;;12.04;100.00;98627.91;5036721;28;20601;-80
2023/10/28 07:05:30;;;;;;;3.00;2.07;;;;;;;12.14;100.00;98644.78;5036966;28;20214;-81
2023/10/28 07:07:56;;;;;;;2.57;2.03;;;;;;;12.02;100.00;98658.53;5036494;28;20229;-81
2023/10/28 07:10:23;;;;;;;2.87;1.47;;;;;;;11.94;100.00;98645.00;5033297;28;20213;-81
2023/10/28 07:12:50;;;;;;;2.97;2.07;;;;;;;11.87;100.00;98634.84;5023344;28;20279;-81
2023/10/28 07:15:17;;;;;;;3.53;1.77;;;;;;;11.88;100.00;98627.84;5029301;28;20280;-80
2023/10/28 07:17:44;;;;;;;1.93;1.47;;;;;;;11.81;100.00;98619.47;5036479;28;20211;-80
2023/10/28 07:20:11;;;;;;;6.17;1.60;;;;;;;11.87;100.00;98623.53;5036297;28;20807;-82
2023/10/28 07:22:38;;;;;;;2.43;1.60;;;;;;;11.86;100.00;98621.84;5056431;28;20288;-80
2023/10/28 07:25:06;;;;;;;3.67;1.83;;;;;;;12.20;100.00;98638.38;5036421;28;20213;-79
2023/10/28 07:27:32;;;;;;;1.67;1.43;;;;;;;12.26;100.00;98651.09;5036337;28;20622;-79
2023/10/28 07:29:59;;;;;;;4.60;1.57;;;;;;;12.03;100.00;98654.97;5044287;28;20325;-78
2023/10/28 07:32:26;;;;;;;1.47;1.37;;;;;;;12.06;100.00;98658.25;5037037;28;20682;-80
2023/10/28 07:34:52;;;;;;;4.13;2.10;;;;;;;12.04;100.00;98652.28;5029256;28;20213;-79
2023/10/28 07:37:18;;;;;;;3.67;1.77;;;;;;;11.95;100.00;98644.91;5035761;28;20198;-80
2023/10/28 07:39:46;;;;;;;1.53;1.37;;;;;;;12.25;100.00;98660.75;5026786;28;20653;-80
2023/10/28 07:42:14;;;;;;;2.47;1.43;;;;;;;11.96;100.00;98664.09;5028099;28;20215;-80
2023/10/28 07:44:40;;;;;;;2.03;1.40;;;;;;;11.95;100.00;98655.38;5025950;28;20199;-80
2023/10/28 07:47:08;;;;;;;2.50;1.53;;;;;;;11.94;100.00;98656.31;5024757;28;20203;-79
2023/10/28 07:49:34;;;;;;;4.63;1.47;;;;;;;12.14;100.00;98649.16;5024985;28;20226;-80
2023/10/28 07:52:00;;;;;;;1.93;1.40;;;;;;;12.23;100.00;98678.28;5024369;28;20218;-82
2023/10/28 07:54:27;;;;;;;3.33;1.47;;;;;;;12.40;100.00;98677.34;5028342;28;20213;-80
2023/10/28 07:56:55;;;;;;;2.20;2.00;;;;;;;12.45;100.00;98692.81;5034731;28;20278;-80
2023/10/28 07:59:22;;;;;;;2.73;1.60;;;;;;;12.49;100.00;98710.88;5036239;28;20603;-81
2023/10/28 08:01:48;;;;;;;1.93;1.47;;;;;;;12.52;100.00;98726.41;5036421;28;20218;-82
2023/10/28 08:04:15;;;;;;;2.73;1.50;;;;;;;12.55;100.00;98735.88;5035646;28;20213;-80
2023/10/28 08:06:42;;;;;;;5.37;2.27;;;;;;;12.57;100.00;98728.78;5035773;28;20574;-81
2023/10/28 08:09:09;;;;;;;2.30;1.50;;;;;;;12.68;100.00;98712.47;5036100;28;20226;-80
2023/10/28 08:11:36;;;;;;;3.33;1.87;;;;;;;12.81;100.00;98699.56;5027018;28;20277;-81
2023/10/28 08:14:05;;;;;;;2.30;1.50;;;;;;;12.85;100.00;98691.44;5020678;28;20211;-81
2023/10/28 08:16:32;;;;;;;2.90;1.60;;;;;;;12.79;100.00;98712.75;5044652;28;20232;-81
2023/10/28 08:18:58;;;;;;;1.97;1.43;;;;;;;12.74;99.86;98743.56;5049886;28;20258;-81
2023/10/28 08:21:26;;;;;;;2.67;1.40;;;;;;;12.79;99.32;98762.47;5039177;28;20218;-82
2023/10/28 08:23:53;;;;;;;1.87;1.50;;;;;;;12.83;99.54;98773.63;5030872;28;20211;-81
2023/10/28 08:26:19;;;;;;;1.87;1.70;;;;;;;12.87;100.00;98757.66;5020972;28;20213;-81
2023/10/28 08:28:49;;;;;;;2.60;1.53;;;;;;;12.78;100.00;98746.84;5018326;28;20231;-81
2023/10/28 08:31:17;;;;;;;2.50;1.30;;;;;;;12.88;100.00;98753.25;5020941;28;20248;-81
2023/10/28 08:33:43;;;;;;;2.60;1.27;;;;;;;12.91;99.16;98766.19;5034053;28;20207;-81
2023/10/28 08:36:10;;;;;;;2.17;1.33;;;;;;;12.99;99.16;98776.25;5034457;28;20305;-83
2023/10/28 08:38:37;;;;;;;2.30;1.50;;;;;;;12.98;98.28;98795.50;5035572;28;20719;-82
2023/10/28 08:41:04;;;;;;;3.43;1.47;;;;;;;13.09;100.00;98769.56;5032659;28;20700;-82
2023/10/28 08:43:34;;;;;;;1.90;1.60;;;;;;;13.02;99.46;98787.41;5016132;28;20202;-81
2023/10/28 08:46:04;;;;;;;3.43;1.30;;;;;;;13.07;99.93;98780.13;5029164;28;20584;-82
2023/10/28 08:48:33;;;;;;;1.70;1.13;;;;;;;12.98;98.42;98798.13;5035479;28;20312;-81
2023/10/28 08:51:00;;;;;;;2.93;1.40;;;;;;;12.97;99.06;98794.66;5036027;28;20210;-81
2023/10/28 08:53:28;;;;;;;1.60;1.10;;;;;;;13.11;100.00;98765.91;5036178;28;20210;-81
2023/10/28 08:55:54;;;;;;;1.20;1.10;;;;;;;12.79;100.00;98770.34;5036135;28;20569;-81
2023/10/28 08:58:21;;;;;;;2.20;1.30;;;;;;;12.79;100.00;98748.56;5037292;28;20225;-83
2023/10/28 09:00:48;;;;;;;3.07;1.20;;;;;;;13.07;100.00;98746.06;5037089;28;20269;-81
2023/10/28 09:03:17;;;;;;;1.93;1.63;;;;;;;13.17;99.58;98777.84;5032016;28;20664;-80
2023/10/28 09:05:45;;;;;;;3.07;1.33;;;;;;;13.21;98.20;98805.56;5032174;28;20212;-81
2023/10/28 09:08:12;;;;;;;1.60;1.10;;;;;;;13.20;99.82;98806.50;5035613;28;20233;-81
2023/10/28 09:10:41;;;;;;;2.17;1.60;;;;;;;13.24;99.30;98810.63;5030857;28;20209;-82
2023/10/28 09:13:08;;;;;;;1.53;1.00;;;;;;;13.29;98.70;98820.84;5019365;28;20236;-81
2023/10/28 09:15:35;;;;;;;1.90;1.20;;;;;;;13.27;97.95;98838.44;5028984;28;20223;-81
2023/10/28 09:18:02;;;;;;;2.57;1.30;;;;;;;13.18;96.81;98866.00;5024796;28;20231;-80
2023/10/28 09:20:29;;;;;;;1.43;1.33;;;;;;;13.25;97.83;98862.09;5035130;28;20214;-81
2023/10/28 09:22:56;;;;;;;1.40;1.23;;;;;;;13.19;96.20;98877.31;5035221;28;20218;-82
2023/10/28 09:25:23;;;;;;;2.13;1.40;;;;;;;13.30;97.32;98873.22;5032622;28;20202;-82
2023/10/28 09:27:50;;;;;;;2.30;1.50;;;;;;;13.36;96.71;98879.03;5032712;28;20206;-80
2023/10/28 09:30:17;;;;;;;1.97;1.57;;;;;;;13.19;96.36;98877.31;5032368;28;20302;-81
2023/10/28 09:32:49;;;;;;;2.10;1.70;;;;;;;13.31;96.86;98880.13;5036707;28;20236;-81
2023/10/28 09:35:15;;;;;;;3.67;1.73;;;;;;;13.36;96.72;98881.63;5038304;28;20202;-82
2023/10/28 09:37:42;;;;;;;2.00;1.80;;;;;;;13.34;97.08;98887.00;5038892;28;20222;-82
2023/10/28 09:40:12;;;;;;;2.23;1.73;;;;;;;13.26;98.29;98876.03;5035029;28;20675;-82
2023/10/28 09:42:39;;;;;;;2.47;1.40;;;;;;;13.30;97.77;98869.75;5018972;28;20593;-81
2023/10/28 09:45:08;;;;;;;1.40;1.30;;;;;;;13.31;96.69;98885.38;5038963;28;20206;-82
2023/10/28 09:47:48;;;;;;;1.93;1.40;;;;;;;13.42;96.26;98890.03;5038096;28;20217;-82
2023/10/28 09:50:15;;;;;;;1.97;1.60;;;;;;;13.41;95.84;98900.59;5035440;28;20285;-81
2023/10/28 09:52:43;;;;;;;2.30;1.50;;;;;;;13.56;97.28;98877.91;5038206;28;20204;-82
2023/10/28 09:55:15;;;;;;;1.37;1.27;;;;;;;13.67;96.93;98886.84;5036605;28;20238;-82
2023/10/28 09:57:43;;;;;;;1.40;1.30;;;;;;;13.61;94.55;98917.84;5038023;28;20717;-83
2023/10/28 10:00:17;;;;;;;1.90;1.80;;;;;;;13.76;94.81;98924.00;5039290;28;20207;-82
2023/10/28 10:02:56;;;;;;;2.83;1.50;;;;;;;13.89;95.06;98923.22;5042460;28;20713;-82
2023/10/28 10:05:30;;;;;;;1.33;1.23;;;;;;;14.02;97.52;98889.25;5035986;28;20203;-83
2023/10/28 10:07:56;;;;;;;3.30;1.60;;;;;;;14.10;98.54;98852.91;5035311;28;20232;-82
2023/10/28 10:10:24;;;;;;;2.53;1.87;;;;;;;14.15;96.91;98873.63;5030691;28;20208;-83
2023/10/28 10:13:02;;;;;;;1.73;1.53;;;;;;;14.36;98.69;98861.00;5019521;28;20208;-83
2023/10/28 10:15:33;;;;;;;1.97;1.20;;;;;;;14.38;96.55;98874.06;5039583;28;20691;-83
2023/10/28 10:18:08;;;;;;;1.90;1.20;;;;;;;14.46;96.15;98884.94;5034768;28;20288;-83
2023/10/28 10:20:36;;;;;;;2.80;1.27;;;;;;;14.57;94.36;98910.56;5041403;28;20214;-83
2023/10/28 10:23:04;;;;;;;1.60;1.00;;;;;;;14.54;93.56;98926.50;5035049;28;20204;-82
2023/10/28 10:25:39;;;;;;;0.80;0.80;;;;;;;14.48;91.22;98977.56;5034569;28;20585;-83
2023/10/28 10:28:13;;;;;;;2.17;0.73;;;;;;;14.56;92.13;98982.38;5042144;28;20235;-82
2023/10/28 10:30:41;;;;;;;1.57;0.90;;;;;;;14.56;91.82;98990.25;5034504;28;20323;-83
2023/10/28 10:33:07;;;;;;;1.50;0.70;;;;;;;13.92;87.75;99040.25;5034832;28;20207;-83
2023/10/28 10:35:36;;;;;;;2.73;1.17;;;;;;;14.20;88.62;99059.69;5038255;28;20236;-81
2023/10/28 10:38:03;;;;;;;3.07;0.70;;;;;;;14.33;91.70;99015.22;5035374;28;20235;-83
2023/10/28 10:40:32;;;;;;;1.20;0.77;;;;;;;14.40;90.10;99022.66;5027855;28;20682;-83
2023/10/28 10:43:06;;;;;;;2.47;0.73;;;;;;;14.49;90.77;99010.78;5015490;28;20244;-83
2023/10/28 10:45:34;;;;;;;0.97;0.87;;;;;;;14.50;90.39;99030.84;5034434;28;20211;-83
2023/10/28 10:48:01;;;;;;;1.37;0.80;;;;;;;14.63;90.50;99018.72;5033618;28;20221;-83
2023/10/28 10:50:28;;;;;;;1.03;0.60;;;;;;;14.66;88.42;99051.84;5033492;28;20216;-83
2023/10/28 10:52:56;;;;;;;1.53;0.50;;;;;;;14.72;89.55;99027.00;5033670;28;20297;-82
2023/10/28 10:55:23;;;;;;;0.77;0.60;;;;;;;14.72;87.55;99061.16;5034092;28;20208;-82
2023/10/28 10:57:50;;;;;;;0.83;0.63;;;;;;;14.73;89.70;99040.06;5033252;28;20313;-82
2023/10/28 11:00:20;;;;;;;1.10;0.77;;;;;;;14.74;88.62;99057.50;5033393;28;20204;-83
2023/10/28 11:02:48;;;;;;;0.70;0.60;;;;;;;14.65;88.38;99069.41;5033778;28;20209;-83
2023/10/28 11:05:14;;;;;;;1.80;0.60;;;;;;;14.46;87.56;99066.09;5033262;28;20207;-82
2023/10/28 11:07:42;;;;;;;0.93;0.57;;;;;;;14.32;85.58;99108.03;5033930;28;20203;-84
2023/10/28 11:10:09;;;;;;;0.70;0.57;;;;;;;14.30;86.17;99118.63;5028823;28;20240;-83
2023/10/28 11:12:37;;;;;;;1.43;0.70;;;;;;;14.40;88.61;99080.41;5012863;28;20208;-83
2023/10/28 11:15:04;;;;;;;0.77;0.70;;;;;;;14.48;88.45;99054.56;5031184;28;20206;-83
2023/10/28 11:17:31;;;;;;;1.03;0.60;;;;;;;14.41;87.19;99066.38;5032673;28;20297;-84
2023/10/28 11:20:00;;;;;;;0.60;0.60;;;;;;;14.37;86.03;99095.47;5032647;28;20254;-83
2023/10/28 11:22:26;;;;;;;1.60;0.50;;;;;;;14.60;87.06;99081.94;5032658;28;20234;-83
2023/10/28 11:24:56;;;;;;;0.90;0.60;;;;;;;14.75;87.82;99069.72;5033061;28;20207;-84
2023/10/28 11:27:24;;;;;;;0.53;0.53;;;;;;;14.77;86.78;99086.22;5036494;28;20624;-81